Time;durP1;ratioP1;P1;durP2;ratioP2;P2;SDS_P1;SDS_P2;PMS_P1;PMS_P2;Temp;Humidity;BMP_temperature;BMP_pressure;BME280_temperature;BME280_humidity;BME280_pressure;Samples;Min_cycle;Max_cycle;Signal;HPM_P1;HPM_P2
2022/09/30 00:01:18;;;;;;;0.10;0.10;;;;;;;4.88;100.00;100718.94;5045804;28;20083;-72
2022/09/30 00:03:44;;;;;;;0.10;0.10;;;;;;;5.03;100.00;100742.97;5049022;28;20040;-73
2022/09/30 00:06:09;;;;;;;0.10;0.10;;;;;;;5.01;100.00;100753.69;5048071;28;20017;-72
2022/09/30 00:08:38;;;;;;;0.10;0.10;;;;;;;4.95;100.00;100746.91;5050506;28;20572;-72
2022/09/30 00:11:17;;;;;;;0.10;0.10;;;;;;;4.92;100.00;100749.75;5045968;28;20070;-72
2022/09/30 00:13:45;;;;;;;0.10;0.10;;;;;;;4.87;100.00;100754.47;5049479;28;20032;-72
2022/09/30 00:16:12;;;;;;;0.10;0.10;;;;;;;4.86;100.00;100762.53;5053344;28;20047;-72
2022/09/30 00:18:38;;;;;;;0.15;0.15;;;;;;;4.75;100.00;100739.19;5048101;28;20025;-72
2022/09/30 00:21:04;;;;;;;0.10;0.10;;;;;;;4.87;100.00;100761.59;5045431;28;20083;-72
2022/09/30 00:23:30;;;;;;;0.20;0.20;;;;;;;4.83;100.00;100765.38;5048849;28;20127;-73
2022/09/30 00:26:05;;;;;;;0.10;0.10;;;;;;;4.63;100.00;100748.69;5047931;28;20116;-72
2022/09/30 00:28:30;;;;;;;0.10;0.10;;;;;;;4.58;100.00;100743.63;5046840;28;20048;-72
2022/09/30 00:31:00;;;;;;;0.05;0.05;;;;;;;4.65;100.00;100758.31;5031569;28;20352;-71
2022/09/30 00:33:26;;;;;;;0.10;0.10;;;;;;;4.49;100.00;100730.84;5042966;28;20066;-71
2022/09/30 00:35:51;;;;;;;0.10;0.10;;;;;;;4.69;100.00;100760.81;5047441;28;20037;-72
2022/09/30 00:38:16;;;;;;;0.10;0.10;;;;;;;4.66;100.00;100761.81;5050264;28;20106;-72
2022/09/30 00:40:42;;;;;;;0.10;0.10;;;;;;;4.38;100.00;100731.38;5047420;28;20028;-72
2022/09/30 00:43:20;;;;;;;0.10;0.10;;;;;;;4.41;100.00;100763.13;5050845;28;20035;-72
2022/09/30 00:45:53;;;;;;;0.10;0.10;;;;;;;4.22;100.00;100736.69;5045792;28;20024;-72
2022/09/30 00:48:23;;;;;;;0.10;0.10;;;;;;;4.45;100.00;100755.88;5032589;28;20075;-71
2022/09/30 00:50:54;;;;;;;0.20;0.20;;;;;;;4.48;100.00;100759.22;5044120;28;20033;-72
2022/09/30 00:53:19;;;;;;;0.10;0.10;;;;;;;4.43;100.00;100750.63;5045018;28;20040;-72
2022/09/30 00:55:58;;;;;;;0.10;0.10;;;;;;;4.40;100.00;100752.59;5046803;28;20028;-72
2022/09/30 00:58:30;;;;;;;0.10;0.10;;;;;;;4.38;100.00;100765.94;5045256;28;20051;-72
2022/09/30 01:00:58;;;;;;;0.10;0.10;;;;;;;4.39;100.00;100762.34;5044653;28;20035;-72
2022/09/30 01:03:24;;;;;;;0.10;0.10;;;;;;;4.38;100.00;100762.44;5045513;28;20066;-71
2022/09/30 01:05:50;;;;;;;0.10;0.10;;;;;;;4.42;100.00;100766.66;5045799;28;20026;-71
2022/09/30 01:08:17;;;;;;;0.10;0.10;;;;;;;4.44;100.00;100772.75;5031627;28;20028;-72
2022/09/30 01:10:43;;;;;;;0.10;0.10;;;;;;;4.40;100.00;100769.38;5041658;28;20056;-72
2022/09/30 01:13:08;;;;;;;0.10;0.10;;;;;;;4.43;100.00;100763.06;5045200;28;20025;-71
2022/09/30 01:15:51;;;;;;;0.10;0.10;;;;;;;4.31;100.00;100762.75;5042932;28;20040;-71
2022/09/30 01:18:31;;;;;;;0.10;0.10;;;;;;;4.18;100.00;100751.06;5047779;28;20041;-71
2022/09/30 01:21:12;;;;;;;0.10;0.10;;;;;;;4.23;100.00;100762.31;5047583;28;20525;-72
2022/09/30 01:23:50;;;;;;;0.10;0.10;;;;;;;4.22;100.00;100759.72;5044808;28;20067;-72
2022/09/30 01:26:41;;;;;;;0.10;0.10;;;;;;;4.24;100.00;100757.84;5043288;28;20138;-72
2022/09/30 01:29:35;;;;;;;0.10;0.10;;;;;;;4.18;100.00;100748.41;5039394;28;20059;-71
2022/09/30 01:32:20;;;;;;;0.10;0.10;;;;;;;4.26;100.00;100756.81;5046332;28;20152;-72
2022/09/30 01:35:08;;;;;;;0.13;0.13;;;;;;;4.11;100.00;100741.69;5045409;28;20033;-72
2022/09/30 01:37:53;;;;;;;0.10;0.10;;;;;;;4.26;100.00;100763.94;5052025;28;20032;-72
2022/09/30 01:40:42;;;;;;;0.20;0.20;;;;;;;4.26;100.00;100759.47;5044534;28;20488;-71
2022/09/30 01:43:15;;;;;;;0.10;0.10;;;;;;;4.26;100.00;100761.28;5047442;28;20075;-72
2022/09/30 01:45:48;;;;;;;0.10;0.10;;;;;;;4.07;100.00;100733.03;5045048;28;20522;-72
2022/09/30 01:48:31;;;;;;;0.20;0.20;;;;;;;4.20;100.00;100751.84;5026787;28;20028;-72
2022/09/30 01:51:19;;;;;;;0.10;0.10;;;;;;;4.20;100.00;100743.88;5044168;28;20024;-71
2022/09/30 01:53:56;;;;;;;0.10;0.10;;;;;;;4.23;100.00;100743.72;5044033;28;20075;-72
2022/09/30 01:56:28;;;;;;;0.28;0.20;;;;;;;4.16;100.00;100735.19;5042396;28;20596;-71
2022/09/30 01:59:05;;;;;;;0.10;0.10;;;;;;;4.23;100.00;100748.16;5042572;28;20025;-72
2022/09/30 02:01:42;;;;;;;0.10;0.10;;;;;;;4.17;100.00;100752.84;5020514;28;20036;-70
2022/09/30 02:04:18;;;;;;;0.10;0.10;;;;;;;4.20;100.00;100766.00;5049245;28;20114;-72
2022/09/30 02:06:47;;;;;;;0.10;0.10;;;;;;;3.99;100.00;100744.03;5043801;28;20064;-74
2022/09/30 02:09:13;;;;;;;0.10;0.10;;;;;;;4.15;100.00;100772.50;5028245;28;20383;-73
2022/09/30 02:11:41;;;;;;;0.10;0.10;;;;;;;3.95;100.00;100761.09;5045216;28;20521;-72
2022/09/30 02:14:35;;;;;;;0.20;0.20;;;;;;;4.00;100.00;100769.66;5043043;28;20044;-73
2022/09/30 02:17:16;;;;;;;0.10;0.10;;;;;;;3.91;100.00;100762.19;5047908;28;20462;-73
2022/09/30 02:19:47;;;;;;;0.10;0.10;;;;;;;3.88;100.00;100768.50;5043032;28;20024;-75
2022/09/30 02:22:16;;;;;;;0.10;0.10;;;;;;;3.78;100.00;100769.94;5023008;28;20072;-75
2022/09/30 02:24:44;;;;;;;0.10;0.10;;;;;;;3.71;100.00;100764.03;5057735;28;20028;-75
2022/09/30 02:27:24;;;;;;;0.10;0.10;;;;;;;3.60;100.00;100764.59;5046949;28;20942;-75
2022/09/30 02:29:53;;;;;;;0.10;0.10;;;;;;;3.54;100.00;100770.22;5039851;28;20035;-75
2022/09/30 02:32:25;;;;;;;0.10;0.10;;;;;;;3.47;100.00;100779.41;5046120;28;20051;-75
2022/09/30 02:35:04;;;;;;;0.10;0.10;;;;;;;3.52;100.00;100764.13;5041915;28;20498;-75
2022/09/30 02:37:34;;;;;;;0.20;0.20;;;;;;;3.25;100.00;100730.03;5040638;28;20036;-75
2022/09/30 02:40:29;;;;;;;0.10;0.10;;;;;;;3.44;100.00;100756.50;5029479;28;20025;-75
2022/09/30 02:42:54;;;;;;;0.10;0.10;;;;;;;3.32;100.00;100727.06;5045835;28;20045;-75
2022/09/30 02:45:21;;;;;;;0.10;0.10;;;;;;;3.34;100.00;100727.84;5043707;28;20068;-75
2022/09/30 02:47:55;;;;;;;0.15;0.15;;;;;;;3.60;100.00;100761.09;5047829;28;20037;-75
2022/09/30 02:50:26;;;;;;;;;;;;;;;3.58;100.00;100762.94;5046761;28;20474;-75
2022/09/30 02:53:06;;;;;;;0.10;0.10;;;;;;;3.59;100.00;100769.97;5029447;28;19955;-75
2022/09/30 02:55:41;;;;;;;0.10;0.10;;;;;;;3.64;100.00;100761.78;5044446;28;20075;-74
2022/09/30 02:58:20;;;;;;;0.10;0.10;;;;;;;3.70;100.00;100757.03;5044636;28;20033;-75
2022/09/30 03:00:46;;;;;;;0.10;0.10;;;;;;;3.65;100.00;100745.78;5046828;28;20545;-75
2022/09/30 03:03:17;;;;;;;0.10;0.10;;;;;;;3.72;100.00;100763.09;5047783;28;20451;-75
2022/09/30 03:05:43;;;;;;;0.20;0.20;;;;;;;3.70;100.00;100761.47;5050122;28;20064;-75
2022/09/30 03:08:09;;;;;;;0.10;0.10;;;;;;;3.75;100.00;100770.91;5046838;28;20029;-75
2022/09/30 03:10:35;;;;;;;0.20;0.20;;;;;;;3.64;100.00;100741.41;5020818;28;20124;-75
2022/09/30 03:13:17;;;;;;;0.10;0.10;;;;;;;3.70;100.00;100756.16;5045296;28;20052;-75
2022/09/30 03:16:06;;;;;;;0.20;0.20;;;;;;;3.72;100.00;100773.72;5041423;28;20029;-75
2022/09/30 03:18:53;;;;;;;0.20;0.20;;;;;;;3.69;100.00;100781.00;5045176;28;20383;-75
2022/09/30 03:21:46;;;;;;;0.10;0.10;;;;;;;3.66;100.00;100786.47;5048114;28;20031;-75
2022/09/30 03:24:50;;;;;;;0.10;0.10;;;;;;;3.64;100.00;100783.00;5059450;28;20024;-75
2022/09/30 03:27:31;;;;;;;0.10;0.10;;;;;;;3.56;100.00;100780.75;5019494;28;20032;-75
2022/09/30 03:30:01;;;;;;;0.10;0.10;;;;;;;3.53;100.00;100787.09;5047221;28;20057;-75
2022/09/30 03:32:47;;;;;;;0.10;0.10;;;;;;;3.49;100.00;100780.19;5046695;28;20120;-75
2022/09/30 03:35:31;;;;;;;0.20;0.20;;;;;;;3.44;100.00;100801.63;5056709;28;20468;-75
2022/09/30 03:38:16;;;;;;;0.10;0.10;;;;;;;3.27;100.00;100797.16;5047478;28;20119;-75
2022/09/30 03:40:48;;;;;;;;;;;;;;;3.17;100.00;100803.84;5046119;28;20032;-75
2022/09/30 03:43:28;;;;;;;0.13;0.13;;;;;;;3.18;100.00;100804.72;5045521;28;19920;-75
2022/09/30 03:46:02;;;;;;;0.10;0.10;;;;;;;3.10;100.00;100794.44;5047379;28;20029;-75
2022/09/30 03:48:28;;;;;;;0.10;0.10;;;;;;;3.12;100.00;100801.41;5046523;28;20040;-75
2022/09/30 03:50:53;;;;;;;0.10;0.10;;;;;;;3.04;100.00;100779.69;5027343;28;20052;-75
2022/09/30 03:53:19;;;;;;;0.10;0.10;;;;;;;3.15;100.00;100800.41;5042590;28;20472;-75
2022/09/30 03:55:47;;;;;;;0.10;0.10;;;;;;;3.09;100.00;100782.09;5039119;28;20434;-75
2022/09/30 03:58:14;;;;;;;0.10;0.10;;;;;;;3.02;100.00;100781.53;5044024;28;20029;-75
2022/09/30 04:00:47;;;;;;;0.10;0.10;;;;;;;3.15;100.00;100809.22;5045170;28;20055;-75
2022/09/30 04:03:13;;;;;;;0.10;0.10;;;;;;;3.08;100.00;100801.59;5046200;28;20028;-75
2022/09/30 04:05:38;;;;;;;0.10;0.10;;;;;;;3.11;100.00;100806.78;5043150;28;20395;-75
2022/09/30 04:08:03;;;;;;;0.10;0.10;;;;;;;2.90;100.00;100766.22;5044670;28;20025;-75
2022/09/30 04:10:29;;;;;;;0.10;0.10;;;;;;;3.19;100.00;100819.66;5045866;28;20072;-75
2022/09/30 04:12:54;;;;;;;0.10;0.10;;;;;;;3.12;100.00;100817.34;5047730;28;20452;-75
2022/09/30 04:15:20;;;;;;;0.10;0.10;;;;;;;3.02;100.00;100815.19;5043296;28;20498;-75
2022/09/30 04:17:45;;;;;;;0.10;0.10;;;;;;;3.06;100.00;100827.34;5046035;28;20025;-75
2022/09/30 04:20:11;;;;;;;0.10;0.10;;;;;;;3.10;100.00;100836.88;5038048;28;20028;-75
2022/09/30 04:22:36;;;;;;;0.10;0.10;;;;;;;3.03;100.00;100833.66;5045353;28;20032;-75
2022/09/30 04:25:02;;;;;;;0.10;0.10;;;;;;;3.13;100.00;100856.19;5046489;28;20035;-75
2022/09/30 04:27:29;;;;;;;0.10;0.10;;;;;;;3.05;100.00;100850.38;5046847;28;20565;-75
2022/09/30 04:29:54;;;;;;;0.20;0.20;;;;;;;2.95;100.00;100834.03;5046537;28;20103;-75
2022/09/30 04:32:21;;;;;;;0.10;0.10;;;;;;;3.10;100.00;100863.41;5046336;28;20174;-75
2022/09/30 04:34:46;;;;;;;0.10;0.10;;;;;;;3.14;100.00;100860.56;5046805;28;20043;-74
2022/09/30 04:37:12;;;;;;;0.10;0.10;;;;;;;3.14;100.00;100870.31;5045345;28;20028;-74
2022/09/30 04:39:39;;;;;;;0.20;0.20;;;;;;;3.11;100.00;100862.50;5050084;28;20055;-74
2022/09/30 04:42:05;;;;;;;0.10;0.10;;;;;;;3.07;100.00;100866.22;5045936;28;20049;-74
2022/09/30 04:44:30;;;;;;;0.10;0.10;;;;;;;3.03;100.00;100870.81;5046741;28;20104;-74
2022/09/30 04:46:55;;;;;;;0.10;0.10;;;;;;;3.03;100.00;100867.31;5048326;28;20376;-75
2022/09/30 04:49:21;;;;;;;0.10;0.10;;;;;;;2.88;100.00;100852.94;5048127;28;20040;-74
2022/09/30 04:51:46;;;;;;;0.13;0.13;;;;;;;2.88;100.00;100855.59;5046513;28;20044;-75
2022/09/30 04:54:12;;;;;;;0.20;0.20;;;;;;;2.95;100.00;100868.50;5043083;28;20069;-75
2022/09/30 04:56:37;;;;;;;0.20;0.20;;;;;;;2.90;100.00;100870.50;5044448;28;20035;-75
2022/09/30 04:59:02;;;;;;;0.10;0.10;;;;;;;2.66;100.00;100849.47;5051555;28;20459;-75
2022/09/30 05:01:28;;;;;;;0.20;0.20;;;;;;;2.75;100.00;100872.06;5045852;28;20055;-75
2022/09/30 05:03:53;;;;;;;0.10;0.10;;;;;;;2.76;100.00;100883.53;5043376;28;20016;-75
2022/09/30 05:06:19;;;;;;;0.10;0.10;;;;;;;2.61;100.00;100862.06;5045144;28;20052;-75
2022/09/30 05:08:45;;;;;;;0.10;0.10;;;;;;;2.72;100.00;100881.94;5042620;28;20064;-75
2022/09/30 05:11:13;;;;;;;0.10;0.10;;;;;;;2.74;100.00;100893.34;5045234;28;20082;-75
2022/09/30 05:13:40;;;;;;;0.10;0.10;;;;;;;2.70;100.00;100884.66;5048247;28;20051;-75
2022/09/30 05:16:06;;;;;;;0.10;0.10;;;;;;;2.57;100.00;100870.22;5046452;28;20541;-75
2022/09/30 05:18:32;;;;;;;0.10;0.10;;;;;;;2.54;100.00;100866.78;5044088;28;20471;-75
2022/09/30 05:20:58;;;;;;;0.10;0.10;;;;;;;2.69;100.00;100886.44;5048256;28;20123;-75
2022/09/30 05:23:25;;;;;;;0.10;0.10;;;;;;;2.68;100.00;100883.84;5052736;28;20124;-75
2022/09/30 05:25:51;;;;;;;0.10;0.10;;;;;;;2.57;100.00;100868.41;5043463;28;20134;-75
2022/09/30 05:28:16;;;;;;;0.15;0.15;;;;;;;2.76;100.00;100896.78;5051307;28;20060;-75
2022/09/30 05:30:42;;;;;;;0.10;0.10;;;;;;;2.77;100.00;100899.38;5045488;28;20065;-75
2022/09/30 05:33:09;;;;;;;0.20;0.20;;;;;;;2.70;100.00;100895.25;5041806;28;20890;-74
2022/09/30 05:35:35;;;;;;;0.10;0.10;;;;;;;2.69;100.00;100893.53;5042861;28;20028;-74
2022/09/30 05:38:03;;;;;;;0.10;0.10;;;;;;;2.69;100.00;100893.53;5052968;28;20045;-75
2022/09/30 05:40:29;;;;;;;0.10;0.10;;;;;;;2.68;100.00;100902.41;5044906;28;20036;-74
2022/09/30 05:42:56;;;;;;;0.10;0.10;;;;;;;2.53;100.00;100882.72;5044031;28;20025;-74
2022/09/30 05:45:21;;;;;;;0.10;0.10;;;;;;;2.50;100.00;100886.38;5041986;28;20052;-74
2022/09/30 05:47:51;;;;;;;0.10;0.10;;;;;;;2.66;100.00;100918.41;5045316;28;20485;-75
2022/09/30 05:50:16;;;;;;;0.10;0.10;;;;;;;2.51;100.00;100895.22;5045336;28;20041;-74
2022/09/30 05:52:42;;;;;;;0.13;0.13;;;;;;;2.64;100.00;100916.75;5047263;28;20048;-75
2022/09/30 05:55:07;;;;;;;0.10;0.10;;;;;;;2.65;100.00;100903.41;5041693;28;20029;-75
2022/09/30 05:57:33;;;;;;;0.10;0.10;;;;;;;2.88;100.00;100938.66;5047563;28;20025;-75
2022/09/30 05:59:58;;;;;;;0.15;0.15;;;;;;;2.96;100.00;100936.53;5044726;28;20035;-75
2022/09/30 06:02:23;;;;;;;0.10;0.10;;;;;;;2.97;100.00;100935.63;5039672;28;20044;-75
2022/09/30 06:04:49;;;;;;;0.10;0.10;;;;;;;3.06;100.00;100944.06;5045283;28;20025;-74
2022/09/30 06:07:15;;;;;;;0.20;0.20;;;;;;;2.89;100.00;100908.56;5047246;28;20451;-75
2022/09/30 06:09:40;;;;;;;0.10;0.10;;;;;;;3.08;100.00;100940.44;5045473;28;20029;-75
2022/09/30 06:12:05;;;;;;;0.10;0.10;;;;;;;3.04;100.00;100927.41;5037493;28;20033;-75
2022/09/30 06:14:31;;;;;;;0.20;0.20;;;;;;;2.89;100.00;100897.97;5042858;28;20049;-75
2022/09/30 06:16:59;;;;;;;0.10;0.10;;;;;;;3.10;100.00;100943.88;5041868;28;20478;-75
2022/09/30 06:19:26;;;;;;;0.10;0.10;;;;;;;3.11;100.00;100944.72;5048068;28;20482;-74
2022/09/30 06:21:52;;;;;;;0.10;0.10;;;;;;;3.18;100.00;100951.50;5043772;28;20222;-74
2022/09/30 06:24:17;;;;;;;0.20;0.20;;;;;;;3.26;100.00;100961.75;5051080;28;20028;-75
2022/09/30 06:26:42;;;;;;;0.10;0.10;;;;;;;3.38;100.00;100960.34;5048059;28;20067;-74
2022/09/30 06:29:08;;;;;;;0.10;0.10;;;;;;;3.54;100.00;100963.16;5039288;28;20056;-74
2022/09/30 06:31:33;;;;;;;0.28;0.28;;;;;;;3.63;100.00;100965.38;5043503;28;20544;-74
2022/09/30 06:33:59;;;;;;;0.20;0.20;;;;;;;3.65;100.00;100962.66;5040193;28;20028;-75
2022/09/30 06:36:28;;;;;;;0.10;0.10;;;;;;;3.71;100.00;100968.53;5042602;28;20116;-75
2022/09/30 06:38:54;;;;;;;0.20;0.20;;;;;;;3.69;100.00;100949.19;5045532;28;20071;-75
2022/09/30 06:41:19;;;;;;;0.28;0.15;;;;;;;3.86;100.00;100963.44;5040160;28;20025;-74
2022/09/30 06:43:44;;;;;;;0.20;0.20;;;;;;;4.00;100.00;100963.63;5035929;28;20430;-74
2022/09/30 06:46:11;;;;;;;0.10;0.10;;;;;;;3.92;100.00;100939.25;5044416;28;20407;-74
2022/09/30 06:48:36;;;;;;;0.10;0.10;;;;;;;4.02;100.00;100929.03;5044258;28;20033;-74
2022/09/30 06:51:02;;;;;;;0.20;0.20;;;;;;;4.30;100.00;100963.06;5043351;28;20040;-74
2022/09/30 06:53:28;;;;;;;0.20;0.20;;;;;;;4.28;100.00;100945.47;5046309;28;20025;-75
2022/09/30 06:55:55;;;;;;;0.32;0.20;;;;;;;4.47;100.00;100959.56;5042103;28;20029;-75
2022/09/30 06:58:21;;;;;;;0.20;0.20;;;;;;;4.56;100.00;100950.25;5042658;28;20064;-74
2022/09/30 07:00:55;;;;;;;0.10;0.10;;;;;;;4.45;100.00;100929.53;5040622;28;20478;-79
2022/09/30 07:03:24;;;;;;;0.20;0.20;;;;;;;4.70;100.00;100952.22;5044778;28;20025;-74
2022/09/30 07:05:56;;;;;;;0.20;0.20;;;;;;;4.84;100.00;100959.47;5054410;28;20037;-74
2022/09/30 07:08:21;;;;;;;0.10;0.10;;;;;;;4.97;100.00;100954.38;5042493;28;20129;-74
2022/09/30 07:10:47;;;;;;;0.10;0.10;;;;;;;5.12;100.00;100951.88;5048768;28;20546;-75
2022/09/30 07:13:13;;;;;;;0.10;0.10;;;;;;;5.21;100.00;100948.69;5048043;28;20032;-75
2022/09/30 07:15:41;;;;;;;0.20;0.20;;;;;;;5.37;100.00;100954.06;5049994;28;20531;-73
2022/09/30 07:18:07;;;;;;;0.10;0.10;;;;;;;5.49;100.00;100961.38;5048654;28;20525;-74
2022/09/30 07:20:32;;;;;;;0.20;0.20;;;;;;;5.69;100.00;100949.63;5049997;28;20028;-73
2022/09/30 07:22:58;;;;;;;0.20;0.20;;;;;;;5.96;100.00;100950.81;5047259;28;20446;-73
2022/09/30 07:25:23;;;;;;;0.20;0.20;;;;;;;6.16;100.00;100955.06;5044635;28;20489;-73
2022/09/30 07:27:49;;;;;;;0.13;0.13;;;;;;;6.34;100.00;100958.47;5039256;28;20029;-75
2022/09/30 07:30:14;;;;;;;0.13;0.13;;;;;;;6.23;100.00;100931.56;5040702;28;20364;-72
2022/09/30 07:32:40;;;;;;;0.10;0.10;;;;;;;6.59;100.00;100975.72;5043159;28;20033;-74
2022/09/30 07:35:06;;;;;;;0.20;0.20;;;;;;;6.71;100.00;100972.28;5043102;28;20033;-74
2022/09/30 07:37:34;;;;;;;0.22;0.22;;;;;;;6.70;100.00;100959.06;5048634;28;20040;-71
2022/09/30 07:40:02;;;;;;;0.20;0.20;;;;;;;6.99;100.00;100965.31;5057010;28;20526;-74
2022/09/30 07:42:29;;;;;;;0.20;0.20;;;;;;;7.05;100.00;100964.94;5040774;28;20070;-74
2022/09/30 07:44:55;;;;;;;0.20;0.20;;;;;;;7.25;100.00;100967.34;5026201;28;20067;-74
2022/09/30 07:47:21;;;;;;;0.20;0.20;;;;;;;7.14;100.00;100954.66;5038004;28;20027;-76
2022/09/30 07:49:47;;;;;;;0.20;0.20;;;;;;;7.36;100.00;100972.84;5040284;28;20043;-73
2022/09/30 07:52:12;;;;;;;0.13;0.13;;;;;;;7.40;100.00;100958.34;5035481;28;20406;-73
2022/09/30 07:54:39;;;;;;;0.20;0.20;;;;;;;7.50;100.00;100951.50;5020400;28;20139;-73
2022/09/30 07:57:04;;;;;;;0.10;0.10;;;;;;;7.82;100.00;100966.41;5052872;28;20029;-73
2022/09/30 07:59:31;;;;;;;0.20;0.20;;;;;;;7.96;100.00;100965.53;5018054;28;20040;-74
2022/09/30 08:01:57;;;;;;;0.13;0.13;;;;;;;8.13;100.00;100939.50;5022688;28;20307;-74
2022/09/30 08:04:24;;;;;;;0.10;0.10;;;;;;;8.33;100.00;100967.59;5037538;28;20033;-73
2022/09/30 08:06:53;;;;;;;0.20;0.20;;;;;;;8.30;100.00;100947.28;5017597;28;20479;-73
2022/09/30 08:09:20;;;;;;;0.20;0.20;;;;;;;8.61;100.00;100965.78;5050010;28;20033;-74
2022/09/30 08:11:45;;;;;;;0.20;0.20;;;;;;;8.60;100.00;100948.00;5035540;28;20032;-73
2022/09/30 08:14:13;;;;;;;0.20;0.20;;;;;;;8.79;100.00;100969.88;5037493;28;20053;-73
2022/09/30 08:16:38;;;;;;;0.10;0.10;;;;;;;8.98;100.00;100961.44;5021433;28;20040;-74
2022/09/30 08:19:04;;;;;;;0.20;0.20;;;;;;;8.81;100.00;100941.19;5040904;28;20025;-75
2022/09/30 08:21:29;;;;;;;0.10;0.10;;;;;;;9.14;100.00;100953.22;5032982;28;20087;-74
2022/09/30 08:23:55;;;;;;;0.17;0.17;;;;;;;9.39;100.00;100969.38;5022973;28;20078;-75
2022/09/30 08:26:20;;;;;;;0.10;0.10;;;;;;;9.56;100.00;100960.13;5038299;28;20025;-74
2022/09/30 08:28:47;;;;;;;0.10;0.10;;;;;;;9.56;100.00;100960.13;5040579;28;20028;-73
2022/09/30 08:31:15;;;;;;;0.10;0.10;;;;;;;9.71;100.00;100963.53;5024477;28;20052;-73
2022/09/30 08:33:40;;;;;;;0.10;0.10;;;;;;;10.02;100.00;100969.34;5038423;28;20032;-72
2022/09/30 08:36:07;;;;;;;0.10;0.10;;;;;;;10.17;100.00;100970.91;5039291;28;20040;-74
2022/09/30 08:38:33;;;;;;;0.10;0.10;;;;;;;10.24;100.00;100965.94;5033164;28;20029;-74
2022/09/30 08:41:23;;;;;;;0.10;0.10;;;;;;;10.37;100.00;100971.25;5036095;28;20551;-72
2022/09/30 08:43:57;;;;;;;0.10;0.10;;;;;;;10.58;100.00;100962.56;5032496;28;20052;-73
2022/09/30 08:46:43;;;;;;;0.10;0.10;;;;;;;10.58;100.00;100974.19;5036420;28;20372;-73
2022/09/30 08:49:33;;;;;;;0.10;0.10;;;;;;;10.83;100.00;100969.63;5035199;28;20029;-77
2022/09/30 08:52:00;;;;;;;0.10;0.10;;;;;;;11.00;100.00;100973.66;5031112;28;20067;-75
2022/09/30 08:54:30;;;;;;;0.10;0.10;;;;;;;11.19;100.00;100974.94;5037520;28;21036;-74
2022/09/30 08:56:56;;;;;;;0.10;0.10;;;;;;;11.03;100.00;100954.59;5032608;28;20035;-72
2022/09/30 08:59:34;;;;;;;0.10;0.10;;;;;;;11.22;100.00;100994.34;5035153;28;20028;-75
2022/09/30 09:02:11;;;;;;;0.10;0.10;;;;;;;11.34;100.00;100989.84;5036934;28;20068;-75
2022/09/30 09:04:36;;;;;;;0.00;0.00;;;;;;;11.46;100.00;100973.72;5035448;28;20024;-73
2022/09/30 09:07:09;;;;;;;0.10;0.10;;;;;;;11.57;100.00;100972.88;5033965;28;20450;-76
2022/09/30 09:10:10;;;;;;;0.10;0.10;;;;;;;11.73;100.00;100973.31;5034342;28;20063;-72
2022/09/30 09:12:44;;;;;;;0.10;0.10;;;;;;;11.84;100.00;100954.50;5032389;28;20363;-74
2022/09/30 09:15:21;;;;;;;0.00;0.00;;;;;;;12.08;100.00;100963.38;5038005;28;20361;-71
2022/09/30 09:18:18;;;;;;;0.10;0.10;;;;;;;12.12;98.16;100978.31;5033470;28;20216;-75
2022/09/30 09:21:08;;;;;;;0.00;0.00;;;;;;;12.33;96.07;100973.00;5037292;28;20126;-74
2022/09/30 09:23:34;;;;;;;0.10;0.10;;;;;;;12.51;100.00;100964.34;5031543;28;20041;-71
2022/09/30 09:25:59;;;;;;;0.10;0.10;;;;;;;12.56;98.80;100952.22;5034164;28;20386;-75
2022/09/30 09:28:47;;;;;;;0.00;0.00;;;;;;;12.74;98.33;100952.47;5036016;28;20469;-75
2022/09/30 09:31:16;;;;;;;0.00;0.00;;;;;;;12.89;95.70;100971.03;5034619;28;20036;-75
2022/09/30 09:33:42;;;;;;;0.00;0.00;;;;;;;12.92;93.12;100975.28;5043758;28;20399;-71
2022/09/30 09:36:13;;;;;;;0.10;0.10;;;;;;;12.63;90.85;100957.94;5035500;28;20941;-76
2022/09/30 09:38:54;;;;;;;0.00;0.00;;;;;;;13.03;95.05;100980.63;5036501;28;20033;-73
2022/09/30 09:41:56;;;;;;;0.10;0.10;;;;;;;13.34;96.17;100973.41;5034497;28;20033;-75
2022/09/30 09:44:37;;;;;;;0.00;0.00;;;;;;;13.38;94.23;100973.97;5033845;28;20060;-75
2022/09/30 09:47:14;;;;;;;0.10;0.10;;;;;;;13.49;89.44;100991.97;5038725;28;20048;-72
2022/09/30 09:49:55;;;;;;;0.10;0.10;;;;;;;13.79;91.71;100996.50;5025154;28;20498;-71
2022/09/30 09:52:53;;;;;;;0.10;0.10;;;;;;;14.00;88.29;100984.75;5032826;28;20527;-73
2022/09/30 09:55:21;;;;;;;0.05;0.05;;;;;;;13.86;86.75;100977.06;5036760;28;20398;-74
2022/09/30 09:57:46;;;;;;;0.00;0.00;;;;;;;14.06;86.96;100976.09;5029040;28;20521;-76
2022/09/30 10:03:12;;;;;;;0.00;0.00;;;;;;;14.30;84.07;100976.72;5040919;28;20036;-74
2022/09/30 10:05:41;;;;;;;0.10;0.10;;;;;;;14.34;83.72;100991.63;5018135;28;20037;-74
2022/09/30 10:08:17;;;;;;;0.00;0.00;;;;;;;14.39;81.12;100983.94;5036293;28;20032;-73
2022/09/30 10:10:46;;;;;;;0.10;0.10;;;;;;;14.72;83.45;100981.00;5034915;28;20558;-72
2022/09/30 10:13:20;;;;;;;0.10;0.10;;;;;;;14.87;82.79;100974.16;5038778;28;20028;-72
2022/09/30 10:15:46;;;;;;;0.00;0.00;;;;;;;14.95;79.25;100951.81;5031717;28;20482;-72
2022/09/30 10:18:22;;;;;;;0.10;0.10;;;;;;;14.83;80.62;100978.16;5036988;28;20128;-72
2022/09/30 10:20:51;;;;;;;0.08;0.08;;;;;;;14.84;80.31;100978.00;5031732;28;20383;-75
2022/09/30 10:23:25;;;;;;;0.10;0.10;;;;;;;14.67;81.31;100984.09;5032556;28;20617;-74
2022/09/30 10:26:17;;;;;;;0.10;0.10;;;;;;;15.06;83.70;100977.81;5033240;28;20495;-75
2022/09/30 10:28:57;;;;;;;0.00;0.00;;;;;;;15.57;76.58;100970.25;5035778;28;20132;-73
2022/09/30 10:31:34;;;;;;;0.08;0.08;;;;;;;15.52;75.53;100965.28;5035329;28;20475;-72
2022/09/30 10:34:22;;;;;;;0.08;0.08;;;;;;;15.72;79.13;100981.44;5052891;28;20433;-73
2022/09/30 10:36:47;;;;;;;0.10;0.10;;;;;;;16.18;74.38;100967.94;5034019;28;20562;-72
2022/09/30 10:39:32;;;;;;;0.10;0.10;;;;;;;16.04;72.25;100967.47;5042995;28;20062;-72
2022/09/30 10:42:07;;;;;;;0.00;0.00;;;;;;;15.75;76.97;100964.91;5040747;28;20067;-73
2022/09/30 10:44:41;;;;;;;0.10;0.10;;;;;;;15.58;77.92;100961.97;5040417;28;20035;-75
2022/09/30 10:47:07;;;;;;;0.10;0.10;;;;;;;15.92;75.65;100962.41;5037380;28;20057;-73
2022/09/30 10:49:44;;;;;;;0.00;0.00;;;;;;;15.83;75.21;100956.88;5040969;28;20059;-72
2022/09/30 10:52:25;;;;;;;0.00;0.00;;;;;;;15.55;72.81;100937.94;5040827;28;20028;-73
2022/09/30 10:54:58;;;;;;;0.10;0.10;;;;;;;16.38;73.09;100978.66;5035551;28;20136;-77
2022/09/30 10:57:28;;;;;;;0.10;0.10;;;;;;;16.31;77.05;100972.97;5035232;28;20055;-75
2022/09/30 11:00:01;;;;;;;0.00;0.00;;;;;;;16.27;70.75;100947.22;5032405;28;20029;-73
2022/09/30 11:02:33;;;;;;;0.10;0.10;;;;;;;16.62;75.47;100972.59;5035794;28;20387;-74
2022/09/30 11:05:02;;;;;;;0.00;0.00;;;;;;;16.69;69.50;100978.22;5047871;28;20284;-73
2022/09/30 11:07:32;;;;;;;0.00;0.00;;;;;;;17.56;67.17;100974.78;5039649;28;20025;-72
2022/09/30 11:10:17;;;;;;;0.00;0.00;;;;;;;17.22;67.91;100973.75;5036625;28;20056;-73
2022/09/30 11:12:56;;;;;;;0.10;0.10;;;;;;;17.69;65.92;100969.75;5040353;28;20028;-73
2022/09/30 11:15:27;;;;;;;0.10;0.10;;;;;;;17.42;65.68;100959.94;5034466;28;20032;-73
2022/09/30 11:17:59;;;;;;;0.10;0.10;;;;;;;17.68;66.11;100958.03;5024842;28;20025;-76
2022/09/30 11:20:28;;;;;;;0.08;0.08;;;;;;;17.88;67.16;100925.16;5036763;28;20060;-77
2022/09/30 11:22:59;;;;;;;0.10;0.03;;;;;;;19.61;59.01;100964.22;5041422;28;20025;-78
2022/09/30 11:25:36;;;;;;;0.08;0.08;;;;;;;19.70;55.13;100957.75;5035994;28;20089;-76
2022/09/30 11:28:14;;;;;;;0.08;0.08;;;;;;;17.99;63.32;100952.06;5039317;28;20025;-78
2022/09/30 11:31:03;;;;;;;0.10;0.10;;;;;;;17.82;61.85;100953.00;5046305;28;20021;-75
2022/09/30 11:34:00;;;;;;;0.10;0.10;;;;;;;18.78;61.36;100942.63;5050011;28;20475;-74
2022/09/30 11:36:47;;;;;;;0.10;0.10;;;;;;;17.55;64.63;100944.09;5036312;28;20053;-75
2022/09/30 11:39:50;;;;;;;0.00;0.00;;;;;;;17.30;62.21;100949.38;5021365;28;20037;-78
2022/09/30 11:42:24;;;;;;;0.05;0.05;;;;;;;18.71;56.33;100953.34;5036960;28;20379;-77
2022/09/30 11:45:15;;;;;;;0.10;0.10;;;;;;;18.91;61.31;100943.97;5041873;28;20024;-72
2022/09/30 11:48:07;;;;;;;0.00;0.00;;;;;;;18.48;60.04;100953.16;5041826;28;20021;-75